Time;durP1;ratioP1;P1;durP2;ratioP2;P2;SDS_P1;SDS_P2;PMS_P1;PMS_P2;Temp;Humidity;BMP_temperature;BMP_pressure;BME280_temperature;BME280_humidity;BME280_pressure;Samples;Min_cycle;Max_cycle;Signal;HPM_P1;HPM_P2
2023/12/20 00:01:46;;;;;;;2.93;2.73;;;7.90;44.10;;;;;;10425036;28;20233;-79
2023/12/20 00:06:50;;;;;;;3.30;2.80;;;8.00;43.80;;;;;;10427876;28;20320;-79
2023/12/20 00:11:53;;;;;;;2.80;2.60;;;8.10;43.80;;;;;;10425763;28;20229;-79
2023/12/20 00:16:57;;;;;;;3.10;2.90;;;8.30;43.60;;;;;;10427454;28;20247;-79
2023/12/20 00:22:01;;;;;;;3.20;2.70;;;8.40;43.40;;;;;;10428827;28;20319;-80
2023/12/20 00:27:05;;;;;;;2.70;2.50;;;8.50;43.60;;;;;;10422280;28;20236;-79
2023/12/20 00:32:09;;;;;;;3.40;2.60;;;8.60;43.40;;;;;;10429767;28;20240;-80
2023/12/20 00:37:12;;;;;;;2.80;2.20;;;8.60;43.00;;;;;;10437401;28;20238;-79
2023/12/20 00:42:17;;;;;;;2.43;2.23;;;8.70;43.20;;;;;;10446129;28;20317;-79
2023/12/20 00:47:22;;;;;;;2.53;2.33;;;8.80;43.10;;;;;;10440662;28;20328;-79
2023/12/20 00:52:25;;;;;;;2.30;2.10;;;8.90;42.70;;;;;;10444480;28;20824;-79
2023/12/20 00:57:28;;;;;;;2.67;2.47;;;9.00;43.10;;;;;;10442116;28;20236;-79
2023/12/20 01:02:33;;;;;;;2.30;2.10;;;9.00;43.00;;;;;;10442701;28;20260;-79
2023/12/20 01:07:36;;;;;;;2.40;2.20;;;9.10;42.60;;;;;;10437168;28;20229;-79
2023/12/20 01:12:39;;;;;;;2.10;2.00;;;9.10;42.90;;;;;;10445486;28;20239;-79
2023/12/20 01:17:44;;;;;;;2.47;2.10;;;9.20;42.80;;;;;;10436598;28;20287;-79
2023/12/20 01:22:48;;;;;;;1.90;1.80;;;9.20;42.10;;;;;;10441094;28;20225;-79
2023/12/20 01:27:51;;;;;;;1.93;1.83;;;9.30;42.60;;;;;;10436132;28;20615;-78
2023/12/20 01:32:56;;;;;;;2.00;1.80;;;9.30;42.40;;;;;;10437440;28;20236;-78
2023/12/20 01:37:59;;;;;;;1.90;1.80;;;9.40;42.00;;;;;;10435716;28;20228;-78
2023/12/20 01:43:03;;;;;;;1.83;1.73;;;9.50;42.30;;;;;;10429019;28;20672;-78
2023/12/20 01:48:10;;;;;;;2.10;1.90;;;9.60;42.00;;;;;;10424561;28;20267;-78
2023/12/20 01:53:14;;;;;;;1.80;1.70;;;9.60;41.30;;;;;;10424456;28;20659;-78
2023/12/20 01:58:19;;;;;;;2.77;1.67;;;9.70;41.90;;;;;;10422444;28;20256;-78
2023/12/20 02:03:25;;;;;;;1.60;1.50;;;9.70;42.60;;;;;;10427032;28;20648;-78
2023/12/20 02:08:28;;;;;;;1.90;1.80;;;9.70;41.50;;;;;;10433648;28;20950;-80
2023/12/20 02:13:32;;;;;;;1.60;1.50;;;9.80;41.90;;;;;;10427735;28;20251;-78
2023/12/20 02:18:36;;;;;;;1.80;1.60;;;9.80;41.50;;;;;;10431024;28;20768;-79
2023/12/20 02:23:41;;;;;;;1.90;1.80;;;9.80;40.70;;;;;;10424768;28;20243;-78
2023/12/20 02:28:44;;;;;;;1.90;1.80;;;9.80;40.70;;;;;;10424032;28;20765;-78
2023/12/20 02:33:47;;;;;;;1.53;1.43;;;9.90;41.00;;;;;;10424485;28;20247;-79
2023/12/20 02:38:52;;;;;;;1.97;1.80;;;9.90;41.00;;;;;;10428553;28;20698;-78
2023/12/20 02:43:55;;;;;;;2.00;1.80;;;9.80;40.70;;;;;;10423641;28;20251;-78
2023/12/20 02:48:58;;;;;;;1.80;1.70;;;9.80;40.80;;;;;;10425616;28;20239;-78
2023/12/20 02:54:03;;;;;;;1.57;1.47;;;9.80;40.80;;;;;;10422307;28;20298;-79
2023/12/20 02:59:08;;;;;;;1.97;1.80;;;9.80;40.70;;;;;;10426450;28;20233;-79
2023/12/20 03:04:11;;;;;;;1.63;1.23;;;9.80;41.20;;;;;;10421244;28;20221;-80
2023/12/20 03:09:16;;;;;;;1.50;1.40;;;9.70;41.40;;;;;;10420525;28;20240;-78
2023/12/20 03:14:19;;;;;;;1.40;1.30;;;9.70;41.50;;;;;;10421671;28;20312;-79
2023/12/20 03:19:23;;;;;;;2.70;1.57;;;9.70;41.90;;;;;;10424761;28;20672;-78
2023/12/20 03:24:28;;;;;;;1.37;1.27;;;9.60;41.90;;;;;;10422707;28;20224;-80
2023/12/20 03:29:31;;;;;;;2.07;1.50;;;9.60;42.20;;;;;;10423541;28;20237;-78
2023/12/20 03:34:35;;;;;;;1.43;1.33;;;9.50;42.50;;;;;;10424680;28;20237;-78
2023/12/20 03:39:39;;;;;;;1.40;1.30;;;9.40;42.60;;;;;;10426886;28;20699;-78
2023/12/20 03:44:43;;;;;;;1.50;1.40;;;9.30;42.80;;;;;;10424103;28;20228;-77
2023/12/20 03:49:46;;;;;;;1.63;1.10;;;9.30;43.20;;;;;;10423622;28;20237;-78
2023/12/20 03:54:50;;;;;;;1.53;1.30;;;9.30;43.10;;;;;;10422451;28;20256;-77
2023/12/20 03:59:54;;;;;;;1.77;1.47;;;9.20;43.40;;;;;;10425568;28;20259;-78
2023/12/20 04:04:57;;;;;;;1.73;1.63;;;9.20;43.50;;;;;;10421586;28;20591;-77
2023/12/20 04:10:01;;;;;;;2.20;1.50;;;9.10;43.60;;;;;;10421019;28;20221;-77
2023/12/20 04:15:09;;;;;;;2.23;2.00;;;9.10;43.80;;;;;;10416357;28;20986;-77
2023/12/20 04:20:12;;;;;;;1.93;1.80;;;9.00;43.80;;;;;;10416231;28;20230;-77
2023/12/20 04:25:17;;;;;;;1.90;1.70;;;9.00;43.90;;;;;;10413832;28;20321;-77
2023/12/20 04:30:20;;;;;;;3.00;1.90;;;8.90;44.10;;;;;;10419594;28;20249;-77
2023/12/20 04:35:24;;;;;;;2.83;1.77;;;8.90;44.10;;;;;;10420571;28;20650;-78
2023/12/20 04:40:28;;;;;;;1.67;1.57;;;8.90;44.20;;;;;;10411713;28;20232;-78
2023/12/20 04:45:31;;;;;;;2.17;1.50;;;8.80;44.40;;;;;;10418482;28;20240;-78
2023/12/20 04:50:35;;;;;;;1.90;1.70;;;8.80;44.30;;;;;;10407443;28;20228;-78
2023/12/20 04:55:40;;;;;;;1.77;1.67;;;8.70;44.50;;;;;;10411121;28;20699;-79
2023/12/20 05:00:43;;;;;;;1.80;1.70;;;8.60;44.80;;;;;;10417146;28;20599;-77
2023/12/20 05:05:47;;;;;;;2.73;2.20;;;8.60;44.80;;;;;;10416894;28;20774;-77
2023/12/20 05:10:51;;;;;;;2.40;2.20;;;8.60;44.80;;;;;;10415835;28;20320;-77
2023/12/20 05:15:54;;;;;;;2.90;1.83;;;8.50;45.00;;;;;;10408108;28;20226;-77
2023/12/20 05:20:58;;;;;;;1.90;1.80;;;8.50;44.80;;;;;;10419223;28;20232;-77
2023/12/20 05:26:03;;;;;;;2.13;1.93;;;8.50;44.90;;;;;;10422845;28;20328;-78
2023/12/20 05:31:06;;;;;;;2.03;1.83;;;8.50;45.30;;;;;;10429920;28;20315;-79
2023/12/20 05:36:13;;;;;;;1.77;1.67;;;8.40;45.20;;;;;;10425052;28;20240;-78
2023/12/20 05:41:17;;;;;;;1.77;1.67;;;8.40;45.30;;;;;;10426384;28;20229;-75
2023/12/20 05:46:21;;;;;;;2.50;2.30;;;8.40;45.50;;;;;;10421642;28;20618;-77
2023/12/20 05:51:24;;;;;;;2.03;1.90;;;8.40;45.50;;;;;;10420313;28;20282;-77
2023/12/20 05:56:29;;;;;;;1.63;1.53;;;8.40;45.50;;;;;;10418239;28;20233;-77
2023/12/20 06:01:32;;;;;;;1.60;1.50;;;8.40;45.70;;;;;;10426117;28;20730;-77
2023/12/20 06:06:35;;;;;;;1.30;1.30;;;8.30;45.50;;;;;;10420050;28;20233;-77
2023/12/20 06:11:40;;;;;;;1.60;1.50;;;8.30;45.80;;;;;;10426811;28;20769;-77
2023/12/20 06:16:45;;;;;;;1.60;1.50;;;8.30;46.00;;;;;;10429749;28;20236;-77
2023/12/20 06:21:48;;;;;;;2.40;2.20;;;8.30;45.90;;;;;;10440899;28;20304;-77
2023/12/20 06:26:53;;;;;;;2.13;1.80;;;8.30;46.00;;;;;;10435780;28;20243;-77
2023/12/20 06:31:56;;;;;;;1.80;1.70;;;8.30;46.20;;;;;;10437320;28;20240;-77
2023/12/20 06:36:59;;;;;;;2.10;1.60;;;8.30;46.10;;;;;;10441697;28;20217;-77
2023/12/20 06:42:04;;;;;;;1.73;1.63;;;8.40;46.20;;;;;;10441453;28;20287;-77
2023/12/20 06:47:08;;;;;;;2.03;1.50;;;8.30;46.50;;;;;;10432388;28;20323;-77
2023/12/20 06:52:11;;;;;;;1.13;1.13;;;8.30;46.30;;;;;;10432502;28;20275;-79
2023/12/20 06:57:16;;;;;;;1.90;1.50;;;8.40;46.20;;;;;;10426196;28;20236;-79
2023/12/20 07:02:20;;;;;;;2.90;2.47;;;8.40;46.30;;;;;;10427853;28;20224;-79
2023/12/20 07:07:24;;;;;;;1.67;1.57;;;8.40;46.10;;;;;;10434900;28;20237;-79
2023/12/20 07:12:29;;;;;;;1.60;1.50;;;8.40;46.20;;;;;;10427638;28;20785;-79
2023/12/20 07:17:33;;;;;;;2.77;1.80;;;8.50;46.60;;;;;;10430742;28;20232;-79
2023/12/20 07:22:36;;;;;;;3.10;2.20;;;8.50;46.20;;;;;;10437106;28;20221;-79
2023/12/20 07:27:40;;;;;;;2.00;1.90;;;8.50;46.50;;;;;;10426447;28;20287;-78
2023/12/20 07:32:47;;;;;;;1.60;1.50;;;8.40;46.70;;;;;;10432993;28;20299;-79
2023/12/20 07:37:50;;;;;;;1.83;1.70;;;8.40;46.50;;;;;;10424257;28;20242;-79
2023/12/20 07:42:55;;;;;;;2.63;2.43;;;8.40;46.70;;;;;;10430692;28;20225;-80
2023/12/20 07:47:58;;;;;;;2.10;2.00;;;8.50;46.90;;;;;;10422194;28;20233;-79
2023/12/20 07:53:01;;;;;;;2.07;1.67;;;8.50;46.70;;;;;;10422806;28;20228;-79
2023/12/20 07:58:06;;;;;;;1.50;1.40;;;8.50;46.80;;;;;;10430555;28;20243;-80
2023/12/20 08:03:10;;;;;;;1.80;1.70;;;8.50;46.90;;;;;;10432522;28;20230;-79
2023/12/20 08:08:13;;;;;;;1.90;1.80;;;8.60;46.70;;;;;;10428902;28;20239;-79
2023/12/20 08:13:18;;;;;;;1.90;1.80;;;8.60;46.70;;;;;;10431452;28;20229;-79
2023/12/20 08:18:21;;;;;;;1.90;1.80;;;8.60;46.90;;;;;;10421808;28;20228;-79
2023/12/20 08:23:24;;;;;;;1.60;1.50;;;8.60;46.70;;;;;;10432569;28;20229;-79
2023/12/20 08:28:31;;;;;;;1.57;1.47;;;8.60;46.60;;;;;;10430302;28;20953;-79
2023/12/20 08:33:34;;;;;;;1.70;1.60;;;8.60;47.00;;;;;;10428151;28;20240;-79
2023/12/20 08:38:38;;;;;;;1.23;1.17;;;8.60;46.80;;;;;;10432427;28;20323;-78
2023/12/20 08:43:42;;;;;;;1.60;1.50;;;8.60;46.90;;;;;;10423878;28;20764;-76
2023/12/20 08:48:45;;;;;;;1.60;1.50;;;8.60;47.60;;;;;;10418803;28;20340;-76
2023/12/20 08:53:49;;;;;;;2.10;2.00;;;8.60;47.00;;;;;;10426191;28;20961;-74
2023/12/20 08:58:53;;;;;;;2.13;1.93;;;8.60;47.00;;;;;;10439922;28;20232;-75
2023/12/20 09:03:57;;;;;;;1.57;1.47;;;8.60;47.40;;;;;;10433239;28;20242;-75
2023/12/20 09:09:00;;;;;;;1.60;1.50;;;8.60;47.10;;;;;;10436146;28;20716;-75
2023/12/20 09:14:04;;;;;;;1.70;1.60;;;8.60;47.20;;;;;;10427868;28;20233;-75
2023/12/20 09:19:07;;;;;;;3.00;2.37;;;8.70;47.60;;;;;;10437142;28;20233;-76
2023/12/20 09:24:11;;;;;;;1.50;1.40;;;8.70;47.30;;;;;;10434738;28;20232;-75
2023/12/20 09:29:16;;;;;;;1.37;1.27;;;8.70;47.20;;;;;;10427578;28;20240;-77
2023/12/20 09:34:19;;;;;;;1.63;1.53;;;8.70;47.60;;;;;;10421141;28;20738;-76
2023/12/20 09:39:23;;;;;;;2.10;2.00;;;8.80;47.40;;;;;;10429066;28;20267;-76
2023/12/20 09:44:27;;;;;;;1.30;1.30;;;8.80;47.60;;;;;;10421221;28;20221;-76
2023/12/20 09:49:31;;;;;;;1.50;1.40;;;8.90;47.70;;;;;;10428527;28;20236;-75
2023/12/20 09:54:35;;;;;;;2.00;1.90;;;8.90;47.60;;;;;;10422452;28;21081;-76
2023/12/20 09:59:40;;;;;;;1.90;1.80;;;9.00;47.60;;;;;;10428616;28;20233;-76
2023/12/20 10:04:48;;;;;;;2.07;1.97;;;9.00;47.80;;;;;;10436600;28;20231;-76
2023/12/20 10:09:55;;;;;;;1.60;1.50;;;9.00;48.00;;;;;;10436774;28;20884;-77
2023/12/20 10:15:00;;;;;;;1.50;1.40;;;9.10;47.80;;;;;;10439303;28;20233;-76
2023/12/20 10:20:09;;;;;;;1.23;1.23;;;9.10;48.10;;;;;;10436383;28;20244;-76
2023/12/20 10:25:13;;;;;;;1.57;1.40;;;9.10;47.80;;;;;;10438311;28;20233;-76
2023/12/20 10:30:18;;;;;;;1.80;1.70;;;9.10;47.70;;;;;;10439272;28;20896;-77
2023/12/20 10:35:21;;;;;;;2.27;1.40;;;9.20;48.00;;;;;;10436818;28;20249;-76
2023/12/20 10:40:29;;;;;;;1.30;1.30;;;9.30;47.70;;;;;;10439315;28;20312;-76
2023/12/20 10:45:34;;;;;;;1.50;1.40;;;9.40;47.90;;;;;;10433468;28;20240;-77
2023/12/20 10:50:39;;;;;;;1.60;1.50;;;9.50;47.80;;;;;;10438133;28;20232;-77
2023/12/20 10:55:44;;;;;;;1.40;1.30;;;9.50;47.50;;;;;;10439071;28;20287;-77
2023/12/20 11:00:51;;;;;;;1.40;1.30;;;9.60;47.50;;;;;;10437286;28;20613;-77
2023/12/20 11:06:01;;;;;;;1.30;1.20;;;9.60;47.50;;;;;;10431563;28;20255;-76
2023/12/20 11:11:11;;;;;;;1.20;1.10;;;9.60;47.30;;;;;;10427719;28;20226;-77
2023/12/20 11:16:15;;;;;;;1.00;1.00;;;9.70;47.50;;;;;;10424677;28;20311;-77
2023/12/20 11:21:19;;;;;;;1.63;1.07;;;9.70;47.30;;;;;;10417439;28;20751;-77
2023/12/20 11:26:28;;;;;;;1.10;1.10;;;9.70;47.20;;;;;;10424639;28;20293;-77
2023/12/20 11:31:41;;;;;;;1.30;1.20;;;9.80;47.10;;;;;;10426327;28;20239;-76
2023/12/20 11:36:44;;;;;;;1.40;1.30;;;9.80;46.70;;;;;;10425217;28;20302;-77
2023/12/20 11:41:49;;;;;;;1.47;1.10;;;9.80;46.70;;;;;;10422616;28;20256;-77
2023/12/20 11:46:55;;;;;;;1.20;1.20;;;9.70;46.60;;;;;;10423113;28;20268;-77
2023/12/20 11:52:00;;;;;;;1.37;1.27;;;9.80;46.60;;;;;;10424098;28;20221;-77
2023/12/20 11:57:03;;;;;;;1.17;1.10;;;9.80;46.50;;;;;;10420250;28;20283;-78
2023/12/20 12:02:08;;;;;;;1.40;1.30;;;9.80;46.10;;;;;;10427858;28;20324;-77
2023/12/20 12:07:12;;;;;;;1.20;1.10;;;9.80;44.20;;;;;;10422969;28;20250;-77
2023/12/20 12:12:15;;;;;;;1.50;1.37;;;9.80;44.50;;;;;;10425854;28;20298;-76
2023/12/20 12:17:20;;;;;;;1.13;1.10;;;9.80;44.80;;;;;;10419199;28;20247;-77
2023/12/20 12:22:26;;;;;;;1.50;1.40;;;9.80;43.80;;;;;;10426941;28;20312;-76
2023/12/20 12:27:30;;;;;;;1.50;1.40;;;9.80;44.20;;;;;;10424545;28;20237;-75
2023/12/20 12:32:35;;;;;;;1.47;1.37;;;9.90;44.40;;;;;;10422027;28;20230;-76
2023/12/20 12:37:40;;;;;;;2.07;1.40;;;9.90;44.30;;;;;;10422167;28;20242;-75
2023/12/20 12:42:45;;;;;;;1.60;1.50;;;10.10;43.00;;;;;;10425480;28;20316;-77
2023/12/20 12:47:50;;;;;;;1.40;1.30;;;10.10;41.70;;;;;;10432232;28;20797;-74
2023/12/20 12:52:53;;;;;;;2.90;1.60;;;10.00;40.90;;;;;;10426213;28;20232;-76
2023/12/20 12:57:56;;;;;;;2.33;1.47;;;10.00;41.70;;;;;;10433510;28;20251;-74
2023/12/20 13:03:01;;;;;;;1.73;1.37;;;10.00;41.40;;;;;;10423601;28;20225;-75
2023/12/20 13:08:05;;;;;;;3.10;1.50;;;9.90;41.80;;;;;;10426181;28;20270;-75
2023/12/20 13:13:08;;;;;;;3.00;1.27;;;9.90;41.70;;;;;;10438834;28;20253;-75
2023/12/20 13:18:13;;;;;;;1.60;1.30;;;9.80;41.70;;;;;;10423638;28;20727;-74
2023/12/20 13:23:18;;;;;;;4.13;1.33;;;9.80;41.50;;;;;;10438104;28;20323;-73
2023/12/20 13:28:21;;;;;;;3.03;1.20;;;9.80;41.20;;;;;;10433813;28;20882;-77
2023/12/20 13:33:25;;;;;;;3.80;1.40;;;9.70;41.10;;;;;;10419629;28;20233;-74
2023/12/20 13:38:28;;;;;;;3.13;1.20;;;9.70;40.60;;;;;;10425258;28;20345;-74
2023/12/20 13:43:33;;;;;;;4.37;2.30;;;9.60;41.20;;;;;;10439742;28;20582;-76
2023/12/20 13:48:37;;;;;;;2.80;1.47;;;9.60;41.80;;;;;;10430889;28;20241;-77
2023/12/20 13:53:40;;;;;;;5.23;1.70;;;9.60;41.80;;;;;;10436906;28;20237;-77
2023/12/20 13:58:46;;;;;;;1.70;1.40;;;9.60;41.50;;;;;;10427149;28;20318;-76
2023/12/20 14:03:51;;;;;;;2.17;1.30;;;9.60;41.70;;;;;;10430602;28;20260;-76
2023/12/20 14:08:54;;;;;;;4.60;1.90;;;9.60;40.90;;;;;;10424151;28;20226;-76
2023/12/20 14:13:58;;;;;;;4.07;1.40;;;9.50;40.50;;;;;;10424791;28;20267;-76
2023/12/20 14:19:03;;;;;;;3.73;1.30;;;9.50;40.50;;;;;;10436768;28;20261;-77
2023/12/20 14:24:07;;;;;;;3.17;1.33;;;9.40;40.40;;;;;;10439581;28;20361;-77
2023/12/20 14:29:11;;;;;;;2.67;1.47;;;9.40;40.40;;;;;;10440880;28;20235;-77
2023/12/20 14:34:15;;;;;;;2.50;1.23;;;9.30;40.30;;;;;;10439998;28;20236;-78
2023/12/20 14:39:18;;;;;;;1.83;1.37;;;9.20;39.20;;;;;;10439298;28;20229;-78
2023/12/20 14:44:22;;;;;;;1.20;1.10;;;9.20;40.20;;;;;;10435706;28;20320;-78
2023/12/20 14:49:26;;;;;;;2.43;1.20;;;9.10;40.10;;;;;;10442817;28;20952;-78
2023/12/20 14:54:29;;;;;;;2.67;1.20;;;9.10;39.70;;;;;;10435121;28;20627;-78
2023/12/20 14:59:33;;;;;;;2.97;1.40;;;9.10;40.10;;;;;;10432420;28;20233;-78
2023/12/20 15:04:38;;;;;;;2.67;1.50;;;9.00;40.80;;;;;;10434833;28;20228;-77
2023/12/20 15:09:45;;;;;;;2.13;1.33;;;9.00;39.90;;;;;;10427087;28;20361;-77
2023/12/20 15:14:49;;;;;;;1.60;1.27;;;9.00;40.10;;;;;;10432473;28;20249;-78
2023/12/20 15:19:53;;;;;;;2.83;1.37;;;8.90;40.00;;;;;;10430766;28;20330;-78
2023/12/20 15:24:57;;;;;;;2.63;1.30;;;8.90;40.00;;;;;;10430415;28;20229;-76
2023/12/20 15:30:00;;;;;;;4.53;1.03;;;8.80;39.90;;;;;;10425582;28;20671;-76
2023/12/20 15:35:06;;;;;;;4.10;0.90;;;8.70;39.90;;;;;;10421779;28;20218;-77
2023/12/20 15:40:11;;;;;;;2.77;1.20;;;8.70;39.80;;;;;;10419454;28;20631;-78
2023/12/20 15:45:15;;;;;;;2.80;1.30;;;8.70;40.20;;;;;;10432618;28;20279;-77
2023/12/20 15:50:19;;;;;;;2.67;1.10;;;8.60;40.30;;;;;;10430762;28;20675;-77
2023/12/20 15:55:23;;;;;;;2.60;1.20;;;8.60;40.10;;;;;;10432616;28;20239;-77
2023/12/20 16:00:26;;;;;;;1.70;1.37;;;8.50;40.50;;;;;;10433072;28;20228;-77
2023/12/20 16:05:31;;;;;;;2.47;1.30;;;8.50;40.80;;;;;;10425834;28;20264;-77
2023/12/20 16:10:35;;;;;;;1.80;1.50;;;8.40;40.70;;;;;;10421584;28;20225;-77
2023/12/20 16:15:38;;;;;;;4.47;1.50;;;8.50;40.90;;;;;;10427085;28;20614;-77
2023/12/20 16:20:43;;;;;;;1.53;1.10;;;8.50;40.80;;;;;;10434594;28;20225;-75
2023/12/20 16:25:46;;;;;;;2.60;1.60;;;8.40;40.50;;;;;;10428443;28;20247;-77
2023/12/20 16:30:49;;;;;;;2.30;1.60;;;8.40;40.80;;;;;;10427306;28;20228;-77
2023/12/20 16:35:57;;;;;;;3.00;1.60;;;8.40;40.80;;;;;;10416696;28;20225;-77
2023/12/20 16:41:00;;;;;;;2.67;1.40;;;8.40;40.50;;;;;;10421623;28;20234;-77
2023/12/20 16:46:04;;;;;;;3.17;1.43;;;8.30;40.90;;;;;;10428594;28;20308;-77
2023/12/20 16:51:10;;;;;;;3.40;1.77;;;8.20;41.00;;;;;;10430440;28;20707;-77
2023/12/20 16:56:13;;;;;;;4.00;2.43;;;8.20;40.90;;;;;;10435141;28;20233;-76
2023/12/20 17:01:16;;;;;;;2.97;2.23;;;8.10;41.10;;;;;;10435814;28;20251;-77
2023/12/20 17:06:23;;;;;;;5.27;2.50;;;8.10;41.10;;;;;;10434559;28;20233;-77
2023/12/20 17:11:26;;;;;;;3.13;1.97;;;8.10;40.90;;;;;;10432369;28;20232;-77
2023/12/20 17:16:29;;;;;;;3.03;1.87;;;8.10;41.20;;;;;;10434802;28;21129;-77
2023/12/20 17:21:34;;;;;;;2.50;1.80;;;8.10;41.20;;;;;;10441802;28;20245;-77
2023/12/20 17:26:37;;;;;;;2.93;1.67;;;8.10;40.90;;;;;;10440382;28;20264;-77
2023/12/20 17:31:42;;;;;;;4.50;2.47;;;8.20;40.90;;;;;;10433124;28;20344;-75
2023/12/20 17:36:46;;;;;;;2.10;1.90;;;8.10;40.80;;;;;;10423183;28;20232;-75
2023/12/20 17:41:50;;;;;;;3.03;1.93;;;8.10;40.60;;;;;;10425691;28;20232;-75
2023/12/20 17:46:54;;;;;;;3.17;1.80;;;8.00;40.90;;;;;;10424363;28;20328;-75
2023/12/20 17:51:59;;;;;;;2.53;1.60;;;8.00;40.90;;;;;;10431223;28;20224;-76
2023/12/20 17:57:02;;;;;;;3.03;1.73;;;8.00;41.00;;;;;;10426880;28;20649;-75
2023/12/20 18:02:05;;;;;;;2.30;1.70;;;7.90;41.10;;;;;;10427694;28;20221;-75
2023/12/20 18:07:11;;;;;;;2.67;1.57;;;7.90;41.20;;;;;;10416361;28;20257;-75
2023/12/20 18:12:14;;;;;;;2.40;1.70;;;7.90;41.00;;;;;;10422570;28;20233;-77
2023/12/20 18:17:18;;;;;;;1.50;1.30;;;8.00;41.30;;;;;;10424955;28;20279;-76
2023/12/20 18:22:22;;;;;;;2.37;1.40;;;8.00;41.30;;;;;;10424455;28;20231;-76
2023/12/20 18:27:26;;;;;;;2.97;1.60;;;8.00;41.20;;;;;;10418947;28;20241;-76
2023/12/20 18:32:29;;;;;;;3.73;1.40;;;8.00;41.30;;;;;;10420200;28;20343;-76
2023/12/20 18:37:34;;;;;;;2.07;1.33;;;8.00;41.50;;;;;;10423677;28;20279;-76
2023/12/20 18:42:38;;;;;;;2.67;1.37;;;8.00;41.40;;;;;;10424738;28;20233;-74
2023/12/20 18:47:41;;;;;;;3.70;1.87;;;8.00;41.30;;;;;;10421380;28;20793;-74
2023/12/20 18:52:46;;;;;;;2.20;1.30;;;8.00;41.50;;;;;;10417997;28;20236;-74
2023/12/20 18:57:49;;;;;;;1.90;1.27;;;8.00;41.30;;;;;;10413861;28;20236;-74
2023/12/20 19:02:54;;;;;;;2.57;1.40;;;8.00;41.30;;;;;;10420707;28;20595;-75
2023/12/20 19:07:58;;;;;;;1.80;1.30;;;8.00;41.30;;;;;;10415933;28;20816;-74
2023/12/20 19:13:01;;;;;;;2.17;1.60;;;8.10;41.20;;;;;;10419501;28;20221;-74
2023/12/20 19:18:05;;;;;;;2.00;1.40;;;8.10;41.30;;;;;;10419286;28;20257;-74
2023/12/20 19:23:10;;;;;;;2.10;1.43;;;8.10;41.10;;;;;;10419594;28;20324;-74
2023/12/20 19:28:13;;;;;;;1.90;1.47;;;8.20;41.10;;;;;;10422838;28;20332;-74
2023/12/20 19:33:17;;;;;;;3.23;1.43;;;8.20;41.10;;;;;;10420573;28;20225;-76
2023/12/20 19:38:21;;;;;;;3.10;1.60;;;8.30;41.10;;;;;;10427559;28;20904;-76
2023/12/20 19:43:25;;;;;;;2.17;1.30;;;8.30;40.70;;;;;;10430582;28;20256;-76
2023/12/20 19:48:28;;;;;;;2.70;1.40;;;8.30;40.90;;;;;;10424130;28;20914;-76
2023/12/20 19:53:32;;;;;;;2.10;1.60;;;8.30;40.60;;;;;;10435002;28;20235;-75
2023/12/20 19:58:36;;;;;;;3.50;1.80;;;8.30;40.50;;;;;;10429260;28;20745;-76
2023/12/20 20:03:39;;;;;;;3.07;1.70;;;8.40;40.80;;;;;;10431625;28;21040;-76
2023/12/20 20:08:44;;;;;;;3.57;2.20;;;8.40;40.60;;;;;;10431094;28;20978;-76
2023/12/20 20:13:47;;;;;;;3.43;1.87;;;8.30;40.50;;;;;;10437095;28;20279;-74
2023/12/20 20:18:50;;;;;;;1.93;1.60;;;8.30;40.60;;;;;;10439148;28;20722;-75
2023/12/20 20:23:56;;;;;;;2.77;1.57;;;8.40;40.40;;;;;;10437201;28;20788;-74
2023/12/20 20:28:59;;;;;;;2.27;1.50;;;8.40;40.00;;;;;;10439121;28;20231;-74
2023/12/20 20:34:02;;;;;;;4.83;1.50;;;8.30;40.50;;;;;;10438333;28;20316;-74
2023/12/20 20:39:07;;;;;;;2.07;1.50;;;8.30;40.70;;;;;;10437532;28;20237;-74
2023/12/20 20:44:10;;;;;;;1.93;1.40;;;8.30;40.60;;;;;;10433330;28;20264;-75
2023/12/20 20:49:15;;;;;;;2.77;1.43;;;8.20;40.90;;;;;;10428959;28;20244;-76
2023/12/20 20:54:20;;;;;;;2.47;1.37;;;8.20;41.00;;;;;;10437150;28;20229;-73
2023/12/20 20:59:24;;;;;;;3.03;1.60;;;8.20;41.00;;;;;;10426497;28;20342;-74
2023/12/20 21:04:28;;;;;;;3.87;1.97;;;8.20;41.20;;;;;;10417281;28;20225;-74
2023/12/20 21:09:33;;;;;;;2.20;1.77;;;8.20;40.90;;;;;;10416193;28;20247;-75
2023/12/20 21:14:36;;;;;;;2.07;1.50;;;8.10;40.80;;;;;;10420360;28;20233;-75
2023/12/20 21:19:39;;;;;;;2.87;1.60;;;8.10;41.10;;;;;;10419643;28;20233;-75
2023/12/20 21:24:44;;;;;;;2.70;1.63;;;8.10;41.30;;;;;;10417877;28;20229;-74
2023/12/20 21:29:47;;;;;;;2.27;1.60;;;8.00;41.30;;;;;;10415570;28;20788;-75
2023/12/20 21:34:51;;;;;;;2.13;1.50;;;8.00;41.30;;;;;;10420626;28;20237;-75
2023/12/20 21:39:55;;;;;;;2.27;1.30;;;8.00;41.30;;;;;;10424359;28;20330;-75
2023/12/20 21:44:58;;;;;;;3.13;1.50;;;8.00;41.20;;;;;;10418677;28;20232;-74
2023/12/20 21:50:01;;;;;;;3.40;1.47;;;8.10;41.30;;;;;;10422251;28;20241;-74
2023/12/20 21:55:08;;;;;;;1.90;1.57;;;8.10;41.10;;;;;;10419222;28;20241;-74
2023/12/20 22:00:12;;;;;;;2.67;1.50;;;8.10;40.90;;;;;;10418332;28;20238;-76
2023/12/20 22:05:15;;;;;;;2.70;1.57;;;8.10;41.20;;;;;;10419684;28;20348;-76
2023/12/20 22:10:21;;;;;;;3.43;1.57;;;8.00;41.10;;;;;;10419936;28;20283;-76
2023/12/20 22:15:24;;;;;;;2.37;1.60;;;8.00;40.90;;;;;;10415411;28;20279;-76
2023/12/20 22:20:29;;;;;;;2.70;1.70;;;8.10;41.10;;;;;;10431150;28;20312;-76
2023/12/20 22:25:34;;;;;;;2.23;1.70;;;8.10;41.10;;;;;;10430608;28;20233;-76
2023/12/20 22:30:37;;;;;;;3.87;1.97;;;8.10;41.10;;;;;;10427783;28;20718;-76
2023/12/20 22:35:41;;;;;;;3.30;1.60;;;8.10;41.10;;;;;;10431319;28;20245;-76
2023/12/20 22:40:47;;;;;;;2.63;1.57;;;8.10;41.00;;;;;;10419805;28;20319;-76
2023/12/20 22:45:50;;;;;;;3.40;1.90;;;8.10;41.00;;;;;;10428099;28;20237;-76
2023/12/20 22:50:54;;;;;;;2.07;1.40;;;8.10;41.10;;;;;;10426551;28;20237;-76
2023/12/20 22:55:59;;;;;;;3.03;1.40;;;8.20;41.20;;;;;;10428568;28;20229;-76
2023/12/20 23:01:02;;;;;;;1.90;1.23;;;8.20;41.00;;;;;;10432989;28;20330;-76
2023/12/20 23:06:06;;;;;;;2.20;1.20;;;8.20;41.10;;;;;;10426391;28;20325;-78
2023/12/20 23:11:11;;;;;;;2.33;1.13;;;8.20;41.10;;;;;;10434336;28;20217;-78
2023/12/20 23:16:14;;;;;;;1.63;1.30;;;8.20;41.00;;;;;;10433407;28;20327;-76
2023/12/20 23:21:17;;;;;;;2.10;1.20;;;8.20;41.10;;;;;;10432953;28;20261;-76
2023/12/20 23:26:22;;;;;;;1.70;1.10;;;8.20;40.90;;;;;;10429413;28;20236;-76
2023/12/20 23:31:26;;;;;;;1.90;1.10;;;8.30;41.60;;;;;;10426241;28;20305;-78
2023/12/20 23:36:29;;;;;;;1.80;1.20;;;8.20;40.90;;;;;;10428044;28;20294;-77
2023/12/20 23:41:33;;;;;;;2.13;1.20;;;8.30;41.10;;;;;;10430927;28;20243;-76
2023/12/20 23:46:36;;;;;;;1.30;0.90;;;8.30;40.90;;;;;;10429145;28;20239;-76
2023/12/20 23:51:41;;;;;;;2.20;1.10;;;8.30;41.10;;;;;;10422082;28;20236;-76
2023/12/20 23:56:47;;;;;;;1.67;0.80;;;8.30;40.90;;;;;;10431551;28;20255;-76
